sensor_id;sensor_type;location;lat;lon;timestamp;P1;durP1;ratioP1;P2;durP2;ratioP2
19569;SDS011;9931;51.458;7.256;2023-06-22T00:00:26;18.20;;;1.63;;
19569;SDS011;9931;51.458;7.256;2023-06-22T00:02:51;20.03;;;1.80;;
19569;SDS011;9931;51.458;7.256;2023-06-22T00:05:17;63.83;;;4.63;;
19569;SDS011;9931;51.458;7.256;2023-06-22T00:07:42;37.10;;;2.83;;
19569;SDS011;9931;51.458;7.256;2023-06-22T00:10:07;27.40;;;2.23;;
19569;SDS011;9931;51.458;7.256;2023-06-22T00:12:33;44.58;;;3.13;;
19569;SDS011;9931;51.458;7.256;2023-06-22T00:14:58;24.08;;;2.00;;
19569;SDS011;9931;51.458;7.256;2023-06-22T00:17:23;22.87;;;1.97;;
19569;SDS011;9931;51.458;7.256;2023-06-22T00:19:48;25.30;;;2.10;;
19569;SDS011;9931;51.458;7.256;2023-06-22T00:22:18;94.78;;;6.13;;
19569;SDS011;9931;51.458;7.256;2023-06-22T00:24:46;17.23;;;1.60;;
19569;SDS011;9931;51.458;7.256;2023-06-22T00:27:11;36.97;;;2.75;;
19569;SDS011;9931;51.458;7.256;2023-06-22T00:29:37;22.02;;;1.98;;
19569;SDS011;9931;51.458;7.256;2023-06-22T00:32:02;17.30;;;1.55;;
19569;SDS011;9931;51.458;7.256;2023-06-22T00:34:28;33.97;;;2.65;;
19569;SDS011;9931;51.458;7.256;2023-06-22T00:36:53;15.60;;;1.40;;
19569;SDS011;9931;51.458;7.256;2023-06-22T00:39:18;22.80;;;1.87;;
19569;SDS011;9931;51.458;7.256;2023-06-22T00:41:43;19.85;;;1.70;;
19569;SDS011;9931;51.458;7.256;2023-06-22T00:44:08;22.07;;;1.87;;
19569;SDS011;9931;51.458;7.256;2023-06-22T00:46:34;13.13;;;1.33;;
19569;SDS011;9931;51.458;7.256;2023-06-22T00:48:59;8.30;;;0.93;;
19569;SDS011;9931;51.458;7.256;2023-06-22T00:51:24;17.80;;;1.58;;
19569;SDS011;9931;51.458;7.256;2023-06-22T00:53:50;18.55;;;1.63;;
19569;SDS011;9931;51.458;7.256;2023-06-22T00:56:16;21.17;;;1.75;;
19569;SDS011;9931;51.458;7.256;2023-06-22T00:58:45;16.40;;;1.45;;
19569;SDS011;9931;51.458;7.256;2023-06-22T01:01:11;27.20;;;2.20;;
19569;SDS011;9931;51.458;7.256;2023-06-22T01:03:36;39.10;;;2.90;;
19569;SDS011;9931;51.458;7.256;2023-06-22T01:06:03;30.30;;;2.30;;
19569;SDS011;9931;51.458;7.256;2023-06-22T01:11:08;22.65;;;2.00;;
19569;SDS011;9931;51.458;7.256;2023-06-22T01:14:00;44.60;;;3.30;;
19569;SDS011;9931;51.458;7.256;2023-06-22T01:16:31;19.55;;;1.73;;
19569;SDS011;9931;51.458;7.256;2023-06-22T01:18:57;16.13;;;1.50;;
19569;SDS011;9931;51.458;7.256;2023-06-22T01:21:25;17.15;;;1.55;;
19569;SDS011;9931;51.458;7.256;2023-06-22T01:29:04;18.30;;;1.60;;
19569;SDS011;9931;51.458;7.256;2023-06-22T01:31:32;25.83;;;2.20;;
19569;SDS011;9931;51.458;7.256;2023-06-22T01:34:00;21.48;;;1.88;;
19569;SDS011;9931;51.458;7.256;2023-06-22T01:36:26;22.63;;;2.00;;
19569;SDS011;9931;51.458;7.256;2023-06-22T01:38:52;97.35;;;6.38;;
19569;SDS011;9931;51.458;7.256;2023-06-22T01:41:17;23.60;;;1.95;;
19569;SDS011;9931;51.458;7.256;2023-06-22T01:43:42;20.10;;;1.73;;
19569;SDS011;9931;51.458;7.256;2023-06-22T01:46:08;50.28;;;3.55;;
19569;SDS011;9931;51.458;7.256;2023-06-22T01:48:34;43.38;;;3.28;;
19569;SDS011;9931;51.458;7.256;2023-06-22T01:51:00;14.77;;;1.48;;
19569;SDS011;9931;51.458;7.256;2023-06-22T01:53:25;24.95;;;2.08;;
19569;SDS011;9931;51.458;7.256;2023-06-22T01:55:50;5.28;;;0.73;;
19569;SDS011;9931;51.458;7.256;2023-06-22T01:58:15;30.92;;;2.38;;
19569;SDS011;9931;51.458;7.256;2023-06-22T02:00:44;25.90;;;2.10;;
19569;SDS011;9931;51.458;7.256;2023-06-22T02:03:17;13.23;;;1.27;;
19569;SDS011;9931;51.458;7.256;2023-06-22T02:05:48;13.93;;;1.25;;
19569;SDS011;9931;51.458;7.256;2023-06-22T02:08:21;45.15;;;3.33;;
19569;SDS011;9931;51.458;7.256;2023-06-22T02:10:48;19.95;;;1.65;;
19569;SDS011;9931;51.458;7.256;2023-06-22T02:13:14;25.95;;;2.15;;
19569;SDS011;9931;51.458;7.256;2023-06-22T02:15:39;23.65;;;1.95;;
19569;SDS011;9931;51.458;7.256;2023-06-22T02:18:05;99.80;;;6.53;;
19569;SDS011;9931;51.458;7.256;2023-06-22T02:20:30;20.40;;;1.75;;
19569;SDS011;9931;51.458;7.256;2023-06-22T02:22:55;24.25;;;2.03;;
19569;SDS011;9931;51.458;7.256;2023-06-22T02:25:29;57.92;;;4.30;;
19569;SDS011;9931;51.458;7.256;2023-06-22T02:27:54;17.63;;;1.60;;
19569;SDS011;9931;51.458;7.256;2023-06-22T02:30:19;18.38;;;1.65;;
19569;SDS011;9931;51.458;7.256;2023-06-22T02:32:44;45.40;;;3.47;;
19569;SDS011;9931;51.458;7.256;2023-06-22T02:35:10;28.27;;;2.33;;
19569;SDS011;9931;51.458;7.256;2023-06-22T02:37:39;37.53;;;2.85;;
19569;SDS011;9931;51.458;7.256;2023-06-22T02:40:06;15.90;;;1.48;;
19569;SDS011;9931;51.458;7.256;2023-06-22T02:42:33;21.55;;;1.83;;
19569;SDS011;9931;51.458;7.256;2023-06-22T02:44:59;19.83;;;1.70;;
19569;SDS011;9931;51.458;7.256;2023-06-22T02:47:24;40.40;;;3.15;;
19569;SDS011;9931;51.458;7.256;2023-06-22T02:49:50;14.93;;;1.38;;
19569;SDS011;9931;51.458;7.256;2023-06-22T02:52:15;17.27;;;1.57;;
19569;SDS011;9931;51.458;7.256;2023-06-22T02:54:40;42.27;;;3.17;;
19569;SDS011;9931;51.458;7.256;2023-06-22T02:57:05;52.53;;;3.73;;
19569;SDS011;9931;51.458;7.256;2023-06-22T02:59:31;17.77;;;1.60;;
19569;SDS011;9931;51.458;7.256;2023-06-22T03:01:56;18.63;;;1.73;;
19569;SDS011;9931;51.458;7.256;2023-06-22T03:04:21;27.03;;;2.17;;
19569;SDS011;9931;51.458;7.256;2023-06-22T03:06:46;47.73;;;3.50;;
19569;SDS011;9931;51.458;7.256;2023-06-22T03:09:15;7.95;;;0.88;;
19569;SDS011;9931;51.458;7.256;2023-06-22T03:11:41;24.42;;;1.92;;
19569;SDS011;9931;51.458;7.256;2023-06-22T03:14:06;11.13;;;1.13;;
19569;SDS011;9931;51.458;7.256;2023-06-22T03:16:32;84.20;;;5.75;;
19569;SDS011;9931;51.458;7.256;2023-06-22T03:18:58;41.88;;;3.13;;
19569;SDS011;9931;51.458;7.256;2023-06-22T03:21:23;20.00;;;1.75;;
19569;SDS011;9931;51.458;7.256;2023-06-22T03:23:48;20.55;;;1.83;;
19569;SDS011;9931;51.458;7.256;2023-06-22T03:26:17;21.90;;;1.87;;
19569;SDS011;9931;51.458;7.256;2023-06-22T03:28:43;22.33;;;2.03;;
19569;SDS011;9931;51.458;7.256;2023-06-22T03:31:08;12.45;;;1.27;;
19569;SDS011;9931;51.458;7.256;2023-06-22T03:33:33;19.57;;;1.70;;
19569;SDS011;9931;51.458;7.256;2023-06-22T03:35:58;19.63;;;1.73;;
19569;SDS011;9931;51.458;7.256;2023-06-22T03:38:23;40.78;;;3.08;;
19569;SDS011;9931;51.458;7.256;2023-06-22T03:40:49;18.13;;;1.63;;
19569;SDS011;9931;51.458;7.256;2023-06-22T03:43:14;19.73;;;1.77;;
19569;SDS011;9931;51.458;7.256;2023-06-22T03:45:39;30.48;;;2.45;;
19569;SDS011;9931;51.458;7.256;2023-06-22T03:48:05;20.88;;;1.83;;
19569;SDS011;9931;51.458;7.256;2023-06-22T03:50:30;25.60;;;2.13;;
19569;SDS011;9931;51.458;7.256;2023-06-22T03:52:56;19.45;;;1.60;;
19569;SDS011;9931;51.458;7.256;2023-06-22T03:55:21;76.85;;;5.55;;
19569;SDS011;9931;51.458;7.256;2023-06-22T03:57:46;16.35;;;1.42;;
19569;SDS011;9931;51.458;7.256;2023-06-22T04:00:11;6.90;;;0.77;;
19569;SDS011;9931;51.458;7.256;2023-06-22T04:02:37;8.05;;;0.80;;
19569;SDS011;9931;51.458;7.256;2023-06-22T04:05:02;17.50;;;1.55;;
19569;SDS011;9931;51.458;7.256;2023-06-22T04:07:28;32.63;;;2.47;;
19569;SDS011;9931;51.458;7.256;2023-06-22T04:09:53;9.63;;;1.05;;
19569;SDS011;9931;51.458;7.256;2023-06-22T04:12:18;24.50;;;2.00;;
19569;SDS011;9931;51.458;7.256;2023-06-22T04:14:43;28.83;;;2.27;;
19569;SDS011;9931;51.458;7.256;2023-06-22T04:17:08;36.73;;;2.87;;
19569;SDS011;9931;51.458;7.256;2023-06-22T04:19:34;45.65;;;3.42;;
19569;SDS011;9931;51.458;7.256;2023-06-22T04:21:59;15.63;;;1.40;;
19569;SDS011;9931;51.458;7.256;2023-06-22T04:24:24;22.33;;;1.90;;
19569;SDS011;9931;51.458;7.256;2023-06-22T04:26:49;20.80;;;1.83;;
19569;SDS011;9931;51.458;7.256;2023-06-22T04:29:18;18.08;;;1.60;;
19569;SDS011;9931;51.458;7.256;2023-06-22T04:31:43;19.45;;;1.70;;
19569;SDS011;9931;51.458;7.256;2023-06-22T04:34:09;19.50;;;1.67;;
19569;SDS011;9931;51.458;7.256;2023-06-22T04:36:38;34.78;;;2.70;;
19569;SDS011;9931;51.458;7.256;2023-06-22T04:39:07;15.98;;;1.42;;
19569;SDS011;9931;51.458;7.256;2023-06-22T04:41:34;21.38;;;1.90;;
19569;SDS011;9931;51.458;7.256;2023-06-22T04:44:09;20.67;;;1.77;;
19569;SDS011;9931;51.458;7.256;2023-06-22T04:46:34;74.88;;;5.13;;
19569;SDS011;9931;51.458;7.256;2023-06-22T04:49:03;35.45;;;2.70;;
19569;SDS011;9931;51.458;7.256;2023-06-22T04:51:31;22.10;;;1.77;;
19569;SDS011;9931;51.458;7.256;2023-06-22T04:53:56;21.00;;;1.83;;
19569;SDS011;9931;51.458;7.256;2023-06-22T04:56:25;27.77;;;2.22;;
19569;SDS011;9931;51.458;7.256;2023-06-22T04:58:53;47.20;;;3.38;;
19569;SDS011;9931;51.458;7.256;2023-06-22T05:01:20;22.67;;;1.88;;
19569;SDS011;9931;51.458;7.256;2023-06-22T05:03:47;21.15;;;1.80;;
19569;SDS011;9931;51.458;7.256;2023-06-22T05:06:12;17.57;;;1.57;;
19569;SDS011;9931;51.458;7.256;2023-06-22T05:08:39;41.47;;;3.13;;
19569;SDS011;9931;51.458;7.256;2023-06-22T05:11:04;24.50;;;2.07;;
19569;SDS011;9931;51.458;7.256;2023-06-22T05:13:30;27.05;;;2.20;;
19569;SDS011;9931;51.458;7.256;2023-06-22T05:15:55;16.00;;;1.45;;
19569;SDS011;9931;51.458;7.256;2023-06-22T05:18:26;33.72;;;2.67;;
19569;SDS011;9931;51.458;7.256;2023-06-22T05:20:51;20.48;;;1.73;;
19569;SDS011;9931;51.458;7.256;2023-06-22T05:23:17;30.13;;;2.40;;
19569;SDS011;9931;51.458;7.256;2023-06-22T05:25:42;24.35;;;2.17;;
19569;SDS011;9931;51.458;7.256;2023-06-22T05:28:07;21.17;;;1.80;;
19569;SDS011;9931;51.458;7.256;2023-06-22T05:30:36;25.55;;;2.17;;
19569;SDS011;9931;51.458;7.256;2023-06-22T05:33:01;17.00;;;1.52;;
19569;SDS011;9931;51.458;7.256;2023-06-22T05:35:26;66.05;;;4.93;;
19569;SDS011;9931;51.458;7.256;2023-06-22T05:37:51;34.27;;;2.63;;
19569;SDS011;9931;51.458;7.256;2023-06-22T05:40:17;20.40;;;1.83;;
19569;SDS011;9931;51.458;7.256;2023-06-22T05:42:42;19.20;;;1.65;;
19569;SDS011;9931;51.458;7.256;2023-06-22T05:45:07;19.60;;;1.73;;
19569;SDS011;9931;51.458;7.256;2023-06-22T05:47:32;26.83;;;2.25;;
19569;SDS011;9931;51.458;7.256;2023-06-22T05:49:58;42.55;;;3.08;;
19569;SDS011;9931;51.458;7.256;2023-06-22T05:52:23;83.03;;;5.57;;
19569;SDS011;9931;51.458;7.256;2023-06-22T05:54:48;24.87;;;2.13;;
19569;SDS011;9931;51.458;7.256;2023-06-22T05:57:13;17.47;;;1.57;;
19569;SDS011;9931;51.458;7.256;2023-06-22T05:59:39;28.67;;;2.30;;
19569;SDS011;9931;51.458;7.256;2023-06-22T06:02:04;20.00;;;1.77;;
19569;SDS011;9931;51.458;7.256;2023-06-22T06:04:29;42.08;;;3.10;;
19569;SDS011;9931;51.458;7.256;2023-06-22T06:06:55;23.77;;;2.05;;
19569;SDS011;9931;51.458;7.256;2023-06-22T06:09:20;23.50;;;1.97;;
19569;SDS011;9931;51.458;7.256;2023-06-22T06:11:45;21.90;;;1.90;;
19569;SDS011;9931;51.458;7.256;2023-06-22T06:14:11;63.10;;;4.30;;
19569;SDS011;9931;51.458;7.256;2023-06-22T06:16:36;23.90;;;2.03;;
19569;SDS011;9931;51.458;7.256;2023-06-22T06:19:01;32.63;;;2.50;;
19569;SDS011;9931;51.458;7.256;2023-06-22T06:21:26;56.50;;;4.13;;
19569;SDS011;9931;51.458;7.256;2023-06-22T06:23:51;23.55;;;2.00;;
19569;SDS011;9931;51.458;7.256;2023-06-22T06:26:18;18.70;;;1.63;;
19569;SDS011;9931;51.458;7.256;2023-06-22T06:28:48;23.05;;;2.00;;
19569;SDS011;9931;51.458;7.256;2023-06-22T06:31:13;31.03;;;2.43;;
19569;SDS011;9931;51.458;7.256;2023-06-22T06:33:42;18.02;;;1.63;;
19569;SDS011;9931;51.458;7.256;2023-06-22T06:36:07;21.58;;;1.88;;
19569;SDS011;9931;51.458;7.256;2023-06-22T06:38:33;22.83;;;1.95;;
19569;SDS011;9931;51.458;7.256;2023-06-22T06:40:58;39.50;;;3.00;;
19569;SDS011;9931;51.458;7.256;2023-06-22T06:43:24;22.02;;;1.83;;
19569;SDS011;9931;51.458;7.256;2023-06-22T06:45:49;26.25;;;2.13;;
19569;SDS011;9931;51.458;7.256;2023-06-22T06:48:14;27.45;;;2.30;;
19569;SDS011;9931;51.458;7.256;2023-06-22T06:50:40;22.25;;;1.85;;
19569;SDS011;9931;51.458;7.256;2023-06-22T06:53:05;5.60;;;0.70;;
19569;SDS011;9931;51.458;7.256;2023-06-22T06:55:31;22.83;;;1.92;;
19569;SDS011;9931;51.458;7.256;2023-06-22T06:57:57;19.73;;;1.67;;
19569;SDS011;9931;51.458;7.256;2023-06-22T07:00:23;22.58;;;1.80;;
19569;SDS011;9931;51.458;7.256;2023-06-22T07:02:50;23.52;;;2.00;;
19569;SDS011;9931;51.458;7.256;2023-06-22T07:05:15;50.47;;;3.90;;
19569;SDS011;9931;51.458;7.256;2023-06-22T07:07:40;25.40;;;2.10;;
19569;SDS011;9931;51.458;7.256;2023-06-22T07:10:06;24.38;;;2.03;;
19569;SDS011;9931;51.458;7.256;2023-06-22T07:12:32;26.08;;;2.17;;
19569;SDS011;9931;51.458;7.256;2023-06-22T07:15:03;24.93;;;2.07;;
19569;SDS011;9931;51.458;7.256;2023-06-22T07:17:29;6.63;;;0.80;;
19569;SDS011;9931;51.458;7.256;2023-06-22T07:19:54;16.70;;;1.52;;
19569;SDS011;9931;51.458;7.256;2023-06-22T07:22:19;30.53;;;2.40;;
19569;SDS011;9931;51.458;7.256;2023-06-22T07:24:44;21.15;;;1.83;;
19569;SDS011;9931;51.458;7.256;2023-06-22T07:27:10;50.87;;;4.07;;
19569;SDS011;9931;51.458;7.256;2023-06-22T07:29:37;19.15;;;1.65;;
19569;SDS011;9931;51.458;7.256;2023-06-22T07:32:04;16.98;;;1.55;;
19569;SDS011;9931;51.458;7.256;2023-06-22T07:34:30;55.05;;;4.00;;
19569;SDS011;9931;51.458;7.256;2023-06-22T07:36:55;13.15;;;1.20;;
19569;SDS011;9931;51.458;7.256;2023-06-22T07:39:20;26.23;;;2.22;;
19569;SDS011;9931;51.458;7.256;2023-06-22T07:41:50;21.90;;;1.92;;
19569;SDS011;9931;51.458;7.256;2023-06-22T07:44:16;15.50;;;1.42;;
19569;SDS011;9931;51.458;7.256;2023-06-22T07:46:41;24.58;;;2.05;;
19569;SDS011;9931;51.458;7.256;2023-06-22T07:49:06;19.17;;;1.73;;
19569;SDS011;9931;51.458;7.256;2023-06-22T07:51:33;21.88;;;1.80;;
19569;SDS011;9931;51.458;7.256;2023-06-22T07:53:58;9.13;;;0.95;;
19569;SDS011;9931;51.458;7.256;2023-06-22T07:56:23;18.33;;;1.60;;
19569;SDS011;9931;51.458;7.256;2023-06-22T07:58:51;51.50;;;3.67;;
19569;SDS011;9931;51.458;7.256;2023-06-22T08:01:16;15.02;;;1.42;;
19569;SDS011;9931;51.458;7.256;2023-06-22T08:03:42;25.60;;;2.10;;
19569;SDS011;9931;51.458;7.256;2023-06-22T08:06:07;17.55;;;1.45;;
19569;SDS011;9931;51.458;7.256;2023-06-22T08:08:34;29.20;;;2.35;;
19569;SDS011;9931;51.458;7.256;2023-06-22T08:10:59;18.13;;;1.65;;
19569;SDS011;9931;51.458;7.256;2023-06-22T08:13:24;14.43;;;1.38;;
19569;SDS011;9931;51.458;7.256;2023-06-22T08:15:50;18.33;;;1.60;;
19569;SDS011;9931;51.458;7.256;2023-06-22T08:18:15;13.97;;;1.23;;
19569;SDS011;9931;51.458;7.256;2023-06-22T08:20:41;17.92;;;1.55;;
19569;SDS011;9931;51.458;7.256;2023-06-22T08:23:06;34.10;;;2.80;;
19569;SDS011;9931;51.458;7.256;2023-06-22T08:25:32;14.93;;;1.37;;
19569;SDS011;9931;51.458;7.256;2023-06-22T08:27:57;20.60;;;1.80;;
19569;SDS011;9931;51.458;7.256;2023-06-22T08:30:23;7.47;;;0.85;;
19569;SDS011;9931;51.458;7.256;2023-06-22T08:32:48;16.60;;;1.45;;
19569;SDS011;9931;51.458;7.256;2023-06-22T08:35:13;31.60;;;2.50;;
19569;SDS011;9931;51.458;7.256;2023-06-22T08:37:38;27.42;;;2.25;;
19569;SDS011;9931;51.458;7.256;2023-06-22T08:40:06;33.97;;;2.65;;
19569;SDS011;9931;51.458;7.256;2023-06-22T08:42:35;25.10;;;1.92;;
19569;SDS011;9931;51.458;7.256;2023-06-22T08:45:01;15.85;;;1.42;;
19569;SDS011;9931;51.458;7.256;2023-06-22T08:47:27;19.00;;;1.70;;
19569;SDS011;9931;51.458;7.256;2023-06-22T08:49:52;20.33;;;1.80;;
19569;SDS011;9931;51.458;7.256;2023-06-22T08:52:18;14.52;;;1.35;;
19569;SDS011;9931;51.458;7.256;2023-06-22T08:54:44;21.27;;;1.85;;
19569;SDS011;9931;51.458;7.256;2023-06-22T08:57:10;38.73;;;2.90;;
19569;SDS011;9931;51.458;7.256;2023-06-22T08:59:35;19.42;;;1.75;;
19569;SDS011;9931;51.458;7.256;2023-06-22T09:02:00;9.32;;;0.98;;
19569;SDS011;9931;51.458;7.256;2023-06-22T09:04:25;14.57;;;1.40;;
19569;SDS011;9931;51.458;7.256;2023-06-22T09:06:51;15.45;;;1.48;;
19569;SDS011;9931;51.458;7.256;2023-06-22T09:09:17;16.92;;;1.55;;
19569;SDS011;9931;51.458;7.256;2023-06-22T09:11:42;44.08;;;3.30;;
19569;SDS011;9931;51.458;7.256;2023-06-22T09:14:08;20.00;;;1.83;;
19569;SDS011;9931;51.458;7.256;2023-06-22T09:16:33;30.90;;;2.47;;
19569;SDS011;9931;51.458;7.256;2023-06-22T09:18:58;16.48;;;1.52;;
19569;SDS011;9931;51.458;7.256;2023-06-22T09:21:24;13.52;;;1.33;;
19569;SDS011;9931;51.458;7.256;2023-06-22T09:23:49;20.20;;;1.83;;
19569;SDS011;9931;51.458;7.256;2023-06-22T09:26:19;21.95;;;2.08;;
19569;SDS011;9931;51.458;7.256;2023-06-22T09:28:44;26.60;;;2.42;;
19569;SDS011;9931;51.458;7.256;2023-06-22T09:31:10;2.58;;;1.00;;
19569;SDS011;9931;51.458;7.256;2023-06-22T09:33:35;20.17;;;2.22;;
19569;SDS011;9931;51.458;7.256;2023-06-22T09:36:01;23.92;;;6.75;;
19569;SDS011;9931;51.458;7.256;2023-06-22T09:38:26;24.90;;;6.68;;
19569;SDS011;9931;51.458;7.256;2023-06-22T09:40:51;22.15;;;7.28;;
19569;SDS011;9931;51.458;7.256;2023-06-22T09:43:17;23.45;;;9.05;;
19569;SDS011;9931;51.458;7.256;2023-06-22T09:45:42;28.13;;;9.52;;
19569;SDS011;9931;51.458;7.256;2023-06-22T09:48:07;24.58;;;10.30;;
19569;SDS011;9931;51.458;7.256;2023-06-22T09:50:34;34.00;;;12.10;;
19569;SDS011;9931;51.458;7.256;2023-06-22T09:52:59;23.75;;;10.60;;
19569;SDS011;9931;51.458;7.256;2023-06-22T09:55:25;58.20;;;13.27;;
19569;SDS011;9931;51.458;7.256;2023-06-22T09:57:50;38.73;;;12.60;;
19569;SDS011;9931;51.458;7.256;2023-06-22T10:00:16;31.15;;;15.25;;
19569;SDS011;9931;51.458;7.256;2023-06-22T10:02:41;33.13;;;14.00;;
19569;SDS011;9931;51.458;7.256;2023-06-22T10:05:07;33.22;;;14.50;;
19569;SDS011;9931;51.458;7.256;2023-06-22T10:07:32;67.05;;;16.98;;
19569;SDS011;9931;51.458;7.256;2023-06-22T10:09:57;45.00;;;16.00;;
19569;SDS011;9931;51.458;7.256;2023-06-22T10:12:23;48.50;;;14.60;;
19569;SDS011;9931;51.458;7.256;2023-06-22T10:14:48;29.63;;;13.75;;
19569;SDS011;9931;51.458;7.256;2023-06-22T10:17:13;52.05;;;14.15;;
19569;SDS011;9931;51.458;7.256;2023-06-22T10:19:38;38.45;;;13.02;;
19569;SDS011;9931;51.458;7.256;2023-06-22T10:22:06;37.90;;;10.95;;
19569;SDS011;9931;51.458;7.256;2023-06-22T10:24:31;35.92;;;9.15;;
19569;SDS011;9931;51.458;7.256;2023-06-22T10:26:56;52.20;;;11.57;;
19569;SDS011;9931;51.458;7.256;2023-06-22T10:29:21;23.43;;;10.43;;
19569;SDS011;9931;51.458;7.256;2023-06-22T10:31:47;33.63;;;9.60;;
19569;SDS011;9931;51.458;7.256;2023-06-22T10:34:12;23.70;;;11.80;;
19569;SDS011;9931;51.458;7.256;2023-06-22T10:36:37;35.27;;;13.10;;
19569;SDS011;9931;51.458;7.256;2023-06-22T10:39:03;28.35;;;14.25;;
19569;SDS011;9931;51.458;7.256;2023-06-22T10:41:28;33.63;;;16.13;;
19569;SDS011;9931;51.458;7.256;2023-06-22T10:43:55;33.88;;;13.70;;
19569;SDS011;9931;51.458;7.256;2023-06-22T10:46:20;20.70;;;16.90;;
19569;SDS011;9931;51.458;7.256;2023-06-22T10:48:45;49.13;;;17.40;;
19569;SDS011;9931;51.458;7.256;2023-06-22T10:51:10;32.83;;;16.47;;
19569;SDS011;9931;51.458;7.256;2023-06-22T10:53:36;58.40;;;18.73;;
19569;SDS011;9931;51.458;7.256;2023-06-22T10:56:01;25.63;;;16.23;;
19569;SDS011;9931;51.458;7.256;2023-06-22T10:58:26;34.00;;;19.40;;
19569;SDS011;9931;51.458;7.256;2023-06-22T11:00:51;66.90;;;17.33;;
19569;SDS011;9931;51.458;7.256;2023-06-22T11:03:16;30.08;;;17.77;;
19569;SDS011;9931;51.458;7.256;2023-06-22T11:05:42;43.33;;;14.50;;
19569;SDS011;9931;51.458;7.256;2023-06-22T11:08:07;15.10;;;13.57;;
19569;SDS011;9931;51.458;7.256;2023-06-22T11:10:32;17.80;;;9.20;;
19569;SDS011;9931;51.458;7.256;2023-06-22T11:12:57;36.87;;;11.77;;
19569;SDS011;9931;51.458;7.256;2023-06-22T11:15:23;80.90;;;15.97;;
19569;SDS011;9931;51.458;7.256;2023-06-22T11:17:48;33.03;;;12.07;;
19569;SDS011;9931;51.458;7.256;2023-06-22T11:20:13;15.63;;;8.50;;
19569;SDS011;9931;51.458;7.256;2023-06-22T11:22:42;23.73;;;8.73;;
19569;SDS011;9931;51.458;7.256;2023-06-22T11:25:07;40.13;;;8.38;;
19569;SDS011;9931;51.458;7.256;2023-06-22T11:27:32;34.95;;;5.32;;
19569;SDS011;9931;51.458;7.256;2023-06-22T11:29:57;21.95;;;4.80;;
19569;SDS011;9931;51.458;7.256;2023-06-22T11:32:23;21.92;;;5.18;;
19569;SDS011;9931;51.458;7.256;2023-06-22T11:34:48;27.25;;;8.63;;
19569;SDS011;9931;51.458;7.256;2023-06-22T11:37:13;55.55;;;8.07;;
19569;SDS011;9931;51.458;7.256;2023-06-22T11:39:38;25.80;;;7.13;;
19569;SDS011;9931;51.458;7.256;2023-06-22T11:42:04;10.20;;;6.38;;
19569;SDS011;9931;51.458;7.256;2023-06-22T11:44:29;25.58;;;6.85;;
19569;SDS011;9931;51.458;7.256;2023-06-22T11:46:54;22.60;;;4.47;;
19569;SDS011;9931;51.458;7.256;2023-06-22T11:49:19;25.10;;;5.10;;
19569;SDS011;9931;51.458;7.256;2023-06-22T11:51:45;35.72;;;6.95;;
19569;SDS011;9931;51.458;7.256;2023-06-22T11:54:10;21.17;;;3.37;;
19569;SDS011;9931;51.458;7.256;2023-06-22T11:56:35;18.63;;;3.20;;
19569;SDS011;9931;51.458;7.256;2023-06-22T11:59:00;23.17;;;3.88;;
19569;SDS011;9931;51.458;7.256;2023-06-22T12:01:25;20.43;;;3.23;;
19569;SDS011;9931;51.458;7.256;2023-06-22T12:03:51;28.80;;;3.15;;
19569;SDS011;9931;51.458;7.256;2023-06-22T12:06:16;12.18;;;1.13;;
19569;SDS011;9931;51.458;7.256;2023-06-22T12:08:41;34.65;;;2.72;;
19569;SDS011;9931;51.458;7.256;2023-06-22T12:11:06;22.93;;;2.07;;
19569;SDS011;9931;51.458;7.256;2023-06-22T12:13:31;21.00;;;8.50;;
19569;SDS011;9931;51.458;7.256;2023-06-22T12:15:57;17.70;;;3.23;;
19569;SDS011;9931;51.458;7.256;2023-06-22T12:18:22;73.60;;;6.07;;
19569;SDS011;9931;51.458;7.256;2023-06-22T12:20:47;22.80;;;2.67;;
19569;SDS011;9931;51.458;7.256;2023-06-22T12:23:12;20.73;;;3.28;;
19569;SDS011;9931;51.458;7.256;2023-06-22T12:25:38;17.58;;;2.13;;
19569;SDS011;9931;51.458;7.256;2023-06-22T12:28:04;22.48;;;4.00;;
19569;SDS011;9931;51.458;7.256;2023-06-22T12:30:29;24.08;;;2.30;;
19569;SDS011;9931;51.458;7.256;2023-06-22T12:32:55;17.20;;;2.47;;
19569;SDS011;9931;51.458;7.256;2023-06-22T12:35:20;67.90;;;7.20;;
19569;SDS011;9931;51.458;7.256;2023-06-22T12:37:45;23.42;;;3.55;;
19569;SDS011;9931;51.458;7.256;2023-06-22T12:40:10;17.13;;;2.80;;
19569;SDS011;9931;51.458;7.256;2023-06-22T12:42:36;21.40;;;2.10;;
19569;SDS011;9931;51.458;7.256;2023-06-22T12:45:01;21.98;;;2.40;;
19569;SDS011;9931;51.458;7.256;2023-06-22T12:47:26;18.25;;;1.98;;
19569;SDS011;9931;51.458;7.256;2023-06-22T12:49:52;23.38;;;2.53;;
19569;SDS011;9931;51.458;7.256;2023-06-22T12:52:17;16.37;;;1.63;;
19569;SDS011;9931;51.458;7.256;2023-06-22T12:54:42;45.05;;;3.55;;
19569;SDS011;9931;51.458;7.256;2023-06-22T12:57:07;52.30;;;3.70;;
19569;SDS011;9931;51.458;7.256;2023-06-22T12:59:32;9.80;;;1.40;;
19569;SDS011;9931;51.458;7.256;2023-06-22T13:01:58;6.85;;;2.63;;
19569;SDS011;9931;51.458;7.256;2023-06-22T13:04:23;23.80;;;3.13;;
19569;SDS011;9931;51.458;7.256;2023-06-22T13:06:48;27.05;;;3.17;;
19569;SDS011;9931;51.458;7.256;2023-06-22T13:09:14;24.83;;;3.50;;
19569;SDS011;9931;51.458;7.256;2023-06-22T13:11:39;46.78;;;4.43;;
19569;SDS011;9931;51.458;7.256;2023-06-22T13:14:05;22.23;;;2.33;;
19569;SDS011;9931;51.458;7.256;2023-06-22T13:16:30;23.40;;;2.40;;
19569;SDS011;9931;51.458;7.256;2023-06-22T13:18:55;18.27;;;2.05;;
19569;SDS011;9931;51.458;7.256;2023-06-22T13:21:20;18.30;;;1.53;;
19569;SDS011;9931;51.458;7.256;2023-06-22T13:23:45;27.43;;;2.63;;
19569;SDS011;9931;51.458;7.256;2023-06-22T13:26:11;7.87;;;2.33;;
19569;SDS011;9931;51.458;7.256;2023-06-22T13:28:36;10.33;;;3.63;;
19569;SDS011;9931;51.458;7.256;2023-06-22T13:31:01;26.08;;;3.53;;
19569;SDS011;9931;51.458;7.256;2023-06-22T13:33:26;30.13;;;3.13;;
19569;SDS011;9931;51.458;7.256;2023-06-22T13:35:52;28.70;;;2.40;;
19569;SDS011;9931;51.458;7.256;2023-06-22T13:38:17;98.50;;;7.03;;
19569;SDS011;9931;51.458;7.256;2023-06-22T13:40:42;62.65;;;4.43;;
19569;SDS011;9931;51.458;7.256;2023-06-22T13:43:08;14.15;;;4.72;;
19569;SDS011;9931;51.458;7.256;2023-06-22T13:45:33;22.02;;;2.60;;
19569;SDS011;9931;51.458;7.256;2023-06-22T13:47:58;29.33;;;2.85;;
19569;SDS011;9931;51.458;7.256;2023-06-22T13:50:24;21.50;;;2.42;;
19569;SDS011;9931;51.458;7.256;2023-06-22T13:52:49;71.47;;;7.75;;
19569;SDS011;9931;51.458;7.256;2023-06-22T13:55:14;24.97;;;4.20;;
19569;SDS011;9931;51.458;7.256;2023-06-22T13:57:39;25.27;;;3.85;;
19569;SDS011;9931;51.458;7.256;2023-06-22T14:00:05;17.70;;;2.80;;
19569;SDS011;9931;51.458;7.256;2023-06-22T14:02:31;20.00;;;3.60;;
19569;SDS011;9931;51.458;7.256;2023-06-22T14:04:56;14.93;;;4.40;;
19569;SDS011;9931;51.458;7.256;2023-06-22T14:07:21;30.95;;;4.88;;
19569;SDS011;9931;51.458;7.256;2023-06-22T14:09:46;33.83;;;3.97;;
19569;SDS011;9931;51.458;7.256;2023-06-22T14:12:12;24.75;;;6.18;;
19569;SDS011;9931;51.458;7.256;2023-06-22T14:14:37;24.13;;;6.45;;
19569;SDS011;9931;51.458;7.256;2023-06-22T14:17:03;38.30;;;5.00;;
19569;SDS011;9931;51.458;7.256;2023-06-22T14:19:29;19.02;;;4.88;;
19569;SDS011;9931;51.458;7.256;2023-06-22T14:21:54;51.97;;;4.60;;
19569;SDS011;9931;51.458;7.256;2023-06-22T14:24:19;27.50;;;4.70;;
19569;SDS011;9931;51.458;7.256;2023-06-22T14:26:44;23.77;;;3.30;;
19569;SDS011;9931;51.458;7.256;2023-06-22T14:29:10;9.67;;;4.47;;
19569;SDS011;9931;51.458;7.256;2023-06-22T14:31:35;16.00;;;4.33;;
19569;SDS011;9931;51.458;7.256;2023-06-22T14:34:00;21.83;;;3.77;;
19569;SDS011;9931;51.458;7.256;2023-06-22T14:36:27;34.78;;;4.43;;
19569;SDS011;9931;51.458;7.256;2023-06-22T14:38:52;35.22;;;4.45;;
19569;SDS011;9931;51.458;7.256;2023-06-22T14:41:18;21.40;;;4.27;;
19569;SDS011;9931;51.458;7.256;2023-06-22T14:43:43;30.20;;;5.75;;
19569;SDS011;9931;51.458;7.256;2023-06-22T14:46:08;10.43;;;4.70;;